Portada
METAR-TAF:

METAR-TAF

Aeroports :

Taunton Municipal Airport (King Field)

Taunton, Massachusetts, Estats Units d'Amèrica

latitud: 41-52-32N, longitud: 071-01-16W, altitud: 13 m

Observació

L'informe es va fer fa 53 minuts, a les 23:52 UTC
Vent 3 kt amb direcció variable
Temperatura 6°C
Humitat 75%
Pressió 1008 hPa
Visibilitat: 14.5 km
Cel cobert a una alçada de 5500 ft
pluja

METAR: KTAN 152352Z AUTO VRB03KT 9SM -RA OVC055 06/02 A2976 RMK AO2 SLPNO P0003 60003 T00610022 10128 20061 55003

Hora: 20:45 (00:45 UTC)


TAF: manca

Observacions i pronòstics meteorològics de més de 4000 aeroports (METAR i TAF).

Les estacions disponibles són els punts grocs i vermells al mapa.

Posi el ratolí al punt desitjat per veure el nom de l'estació.

Feu clic per veure les observacions i els pronòstics meteorològics.

Per canviar el mapa: feu clic els botons verds amb una creu de color negre per apropar; al botó verd amb un guió per allunyar la imatge; o en les fletxes verdes per a mapes adjacents.


METAR-TAF: